sensor_id;sensor_type;location;lat;lon;timestamp;P1;durP1;ratioP1;P2;durP2;ratioP2
46090;SDS011;31826;53.572;10.170;2023-04-24T00:02:22;8.05;;;3.80;;
46090;SDS011;31826;53.572;10.170;2023-04-24T00:04:48;8.50;;;4.87;;
46090;SDS011;31826;53.572;10.170;2023-04-24T00:07:14;6.73;;;3.63;;
46090;SDS011;31826;53.572;10.170;2023-04-24T00:09:41;8.73;;;4.65;;
46090;SDS011;31826;53.572;10.170;2023-04-24T00:12:10;8.65;;;4.47;;
46090;SDS011;31826;53.572;10.170;2023-04-24T00:14:36;8.30;;;4.28;;
46090;SDS011;31826;53.572;10.170;2023-04-24T00:17:01;7.43;;;4.23;;
46090;SDS011;31826;53.572;10.170;2023-04-24T00:19:27;9.63;;;4.43;;
46090;SDS011;31826;53.572;10.170;2023-04-24T00:21:54;8.30;;;4.30;;
46090;SDS011;31826;53.572;10.170;2023-04-24T00:24:19;6.97;;;3.85;;
46090;SDS011;31826;53.572;10.170;2023-04-24T00:26:45;9.30;;;4.20;;
46090;SDS011;31826;53.572;10.170;2023-04-24T00:29:11;10.57;;;4.50;;
46090;SDS011;31826;53.572;10.170;2023-04-24T00:31:37;9.77;;;4.53;;
46090;SDS011;31826;53.572;10.170;2023-04-24T00:34:03;9.07;;;4.50;;
46090;SDS011;31826;53.572;10.170;2023-04-24T00:36:29;8.93;;;4.07;;
46090;SDS011;31826;53.572;10.170;2023-04-24T00:38:56;10.02;;;4.63;;
46090;SDS011;31826;53.572;10.170;2023-04-24T00:41:22;9.32;;;4.40;;
46090;SDS011;31826;53.572;10.170;2023-04-24T00:43:49;8.93;;;4.38;;
46090;SDS011;31826;53.572;10.170;2023-04-24T00:46:15;10.35;;;4.85;;
46090;SDS011;31826;53.572;10.170;2023-04-24T00:48:41;9.25;;;4.43;;
46090;SDS011;31826;53.572;10.170;2023-04-24T00:51:08;7.70;;;4.57;;
46090;SDS011;31826;53.572;10.170;2023-04-24T00:53:34;9.52;;;4.75;;
46090;SDS011;31826;53.572;10.170;2023-04-24T00:56:00;9.18;;;4.70;;
46090;SDS011;31826;53.572;10.170;2023-04-24T00:58:27;11.35;;;5.18;;
46090;SDS011;31826;53.572;10.170;2023-04-24T01:00:54;9.40;;;4.95;;
46090;SDS011;31826;53.572;10.170;2023-04-24T01:03:24;9.47;;;5.00;;
46090;SDS011;31826;53.572;10.170;2023-04-24T01:05:51;11.15;;;5.45;;
46090;SDS011;31826;53.572;10.170;2023-04-24T01:08:19;10.43;;;4.60;;
46090;SDS011;31826;53.572;10.170;2023-04-24T01:10:48;8.82;;;4.60;;
46090;SDS011;31826;53.572;10.170;2023-04-24T01:13:18;10.18;;;4.80;;
46090;SDS011;31826;53.572;10.170;2023-04-24T01:15:45;12.27;;;4.60;;
46090;SDS011;31826;53.572;10.170;2023-04-24T01:18:12;8.45;;;4.30;;
46090;SDS011;31826;53.572;10.170;2023-04-24T01:20:41;8.88;;;4.40;;
46090;SDS011;31826;53.572;10.170;2023-04-24T01:23:09;10.15;;;4.72;;
46090;SDS011;31826;53.572;10.170;2023-04-24T01:25:35;8.52;;;4.15;;
46090;SDS011;31826;53.572;10.170;2023-04-24T01:28:02;9.20;;;4.43;;
46090;SDS011;31826;53.572;10.170;2023-04-24T01:30:28;8.25;;;4.25;;
46090;SDS011;31826;53.572;10.170;2023-04-24T01:32:55;8.57;;;3.78;;
46090;SDS011;31826;53.572;10.170;2023-04-24T01:35:21;8.73;;;3.60;;
46090;SDS011;31826;53.572;10.170;2023-04-24T01:37:46;6.30;;;3.50;;
46090;SDS011;31826;53.572;10.170;2023-04-24T01:40:12;7.10;;;3.80;;
46090;SDS011;31826;53.572;10.170;2023-04-24T01:42:38;6.45;;;3.33;;
46090;SDS011;31826;53.572;10.170;2023-04-24T01:45:05;5.95;;;3.05;;
46090;SDS011;31826;53.572;10.170;2023-04-24T01:47:33;6.70;;;3.30;;
46090;SDS011;31826;53.572;10.170;2023-04-24T01:49:58;6.03;;;3.07;;
46090;SDS011;31826;53.572;10.170;2023-04-24T01:52:24;6.27;;;3.10;;
46090;SDS011;31826;53.572;10.170;2023-04-24T01:54:50;5.53;;;3.05;;
46090;SDS011;31826;53.572;10.170;2023-04-24T01:57:17;4.55;;;2.78;;
46090;SDS011;31826;53.572;10.170;2023-04-24T01:59:43;8.30;;;2.85;;
46090;SDS011;31826;53.572;10.170;2023-04-24T02:02:09;5.90;;;2.90;;
46090;SDS011;31826;53.572;10.170;2023-04-24T02:04:34;7.97;;;2.87;;
46090;SDS011;31826;53.572;10.170;2023-04-24T02:07:00;4.90;;;2.60;;
46090;SDS011;31826;53.572;10.170;2023-04-24T02:09:26;4.97;;;2.60;;
46090;SDS011;31826;53.572;10.170;2023-04-24T02:11:51;5.32;;;2.90;;
46090;SDS011;31826;53.572;10.170;2023-04-24T02:14:17;4.43;;;2.53;;
46090;SDS011;31826;53.572;10.170;2023-04-24T02:16:43;5.18;;;2.63;;
46090;SDS011;31826;53.572;10.170;2023-04-24T02:19:09;7.13;;;2.78;;
46090;SDS011;31826;53.572;10.170;2023-04-24T02:21:35;5.70;;;2.70;;
46090;SDS011;31826;53.572;10.170;2023-04-24T02:24:00;4.80;;;2.72;;
46090;SDS011;31826;53.572;10.170;2023-04-24T02:26:26;5.47;;;2.80;;
46090;SDS011;31826;53.572;10.170;2023-04-24T02:28:52;6.63;;;2.65;;
46090;SDS011;31826;53.572;10.170;2023-04-24T02:31:17;5.55;;;2.75;;
46090;SDS011;31826;53.572;10.170;2023-04-24T02:33:43;6.57;;;3.00;;
46090;SDS011;31826;53.572;10.170;2023-04-24T02:36:09;5.77;;;2.90;;
46090;SDS011;31826;53.572;10.170;2023-04-24T02:38:34;6.30;;;2.60;;
46090;SDS011;31826;53.572;10.170;2023-04-24T02:41:00;4.80;;;2.63;;
46090;SDS011;31826;53.572;10.170;2023-04-24T02:43:27;4.93;;;2.65;;
46090;SDS011;31826;53.572;10.170;2023-04-24T02:45:53;4.72;;;2.60;;
46090;SDS011;31826;53.572;10.170;2023-04-24T02:48:18;3.83;;;2.20;;
46090;SDS011;31826;53.572;10.170;2023-04-24T02:50:45;5.13;;;2.60;;
46090;SDS011;31826;53.572;10.170;2023-04-24T02:53:11;3.85;;;2.15;;
46090;SDS011;31826;53.572;10.170;2023-04-24T02:55:37;4.28;;;2.30;;
46090;SDS011;31826;53.572;10.170;2023-04-24T02:58:02;4.55;;;2.20;;
46090;SDS011;31826;53.572;10.170;2023-04-24T03:00:28;4.68;;;2.17;;
46090;SDS011;31826;53.572;10.170;2023-04-24T03:02:54;3.33;;;2.08;;
46090;SDS011;31826;53.572;10.170;2023-04-24T03:05:20;3.83;;;1.92;;
46090;SDS011;31826;53.572;10.170;2023-04-24T03:07:46;4.93;;;1.90;;
46090;SDS011;31826;53.572;10.170;2023-04-24T03:10:12;3.63;;;2.00;;
46090;SDS011;31826;53.572;10.170;2023-04-24T03:12:37;5.32;;;2.00;;
46090;SDS011;31826;53.572;10.170;2023-04-24T03:15:03;3.40;;;1.70;;
46090;SDS011;31826;53.572;10.170;2023-04-24T03:17:29;3.95;;;1.73;;
46090;SDS011;31826;53.572;10.170;2023-04-24T03:19:55;3.97;;;1.98;;
46090;SDS011;31826;53.572;10.170;2023-04-24T03:22:21;2.25;;;1.60;;
46090;SDS011;31826;53.572;10.170;2023-04-24T03:24:46;2.25;;;1.58;;
46090;SDS011;31826;53.572;10.170;2023-04-24T03:27:12;2.30;;;1.60;;
46090;SDS011;31826;53.572;10.170;2023-04-24T03:29:38;2.30;;;1.40;;
46090;SDS011;31826;53.572;10.170;2023-04-24T03:32:03;5.00;;;1.40;;
46090;SDS011;31826;53.572;10.170;2023-04-24T03:34:29;2.20;;;1.50;;
46090;SDS011;31826;53.572;10.170;2023-04-24T03:36:54;3.07;;;1.57;;
46090;SDS011;31826;53.572;10.170;2023-04-24T03:39:20;2.72;;;1.50;;
46090;SDS011;31826;53.572;10.170;2023-04-24T03:41:46;3.25;;;1.65;;
46090;SDS011;31826;53.572;10.170;2023-04-24T03:44:11;1.80;;;1.40;;
46090;SDS011;31826;53.572;10.170;2023-04-24T03:46:37;3.40;;;1.57;;
46090;SDS011;31826;53.572;10.170;2023-04-24T03:49:03;3.20;;;1.60;;
46090;SDS011;31826;53.572;10.170;2023-04-24T03:51:28;3.57;;;1.70;;
46090;SDS011;31826;53.572;10.170;2023-04-24T03:53:56;2.58;;;1.50;;
46090;SDS011;31826;53.572;10.170;2023-04-24T03:56:22;2.25;;;1.40;;
46090;SDS011;31826;53.572;10.170;2023-04-24T03:58:47;2.78;;;1.52;;
46090;SDS011;31826;53.572;10.170;2023-04-24T04:01:13;2.90;;;1.53;;
46090;SDS011;31826;53.572;10.170;2023-04-24T04:03:40;2.25;;;1.60;;
46090;SDS011;31826;53.572;10.170;2023-04-24T04:06:06;1.60;;;1.40;;
46090;SDS011;31826;53.572;10.170;2023-04-24T04:08:32;2.63;;;1.40;;
46090;SDS011;31826;53.572;10.170;2023-04-24T04:10:58;2.33;;;1.50;;
46090;SDS011;31826;53.572;10.170;2023-04-24T04:13:23;2.70;;;1.58;;
46090;SDS011;31826;53.572;10.170;2023-04-24T04:15:49;2.40;;;1.50;;
46090;SDS011;31826;53.572;10.170;2023-04-24T04:18:15;2.35;;;1.50;;
46090;SDS011;31826;53.572;10.170;2023-04-24T04:20:40;3.42;;;1.63;;
46090;SDS011;31826;53.572;10.170;2023-04-24T04:23:06;2.90;;;1.60;;
46090;SDS011;31826;53.572;10.170;2023-04-24T04:25:32;1.70;;;1.30;;
46090;SDS011;31826;53.572;10.170;2023-04-24T04:27:57;2.07;;;1.43;;
46090;SDS011;31826;53.572;10.170;2023-04-24T04:30:24;2.30;;;1.50;;
46090;SDS011;31826;53.572;10.170;2023-04-24T04:32:50;2.28;;;1.45;;
46090;SDS011;31826;53.572;10.170;2023-04-24T04:35:16;2.58;;;1.73;;
46090;SDS011;31826;53.572;10.170;2023-04-24T04:37:42;2.05;;;1.40;;
46090;SDS011;31826;53.572;10.170;2023-04-24T04:40:08;1.98;;;1.50;;
46090;SDS011;31826;53.572;10.170;2023-04-24T04:42:37;3.65;;;1.50;;
46090;SDS011;31826;53.572;10.170;2023-04-24T04:45:08;1.95;;;1.40;;
46090;SDS011;31826;53.572;10.170;2023-04-24T04:47:34;2.80;;;1.30;;
46090;SDS011;31826;53.572;10.170;2023-04-24T04:50:00;2.20;;;1.60;;
46090;SDS011;31826;53.572;10.170;2023-04-24T04:52:26;2.53;;;1.40;;
46090;SDS011;31826;53.572;10.170;2023-04-24T04:54:52;1.40;;;1.30;;
46090;SDS011;31826;53.572;10.170;2023-04-24T04:57:18;2.25;;;1.40;;
46090;SDS011;31826;53.572;10.170;2023-04-24T04:59:43;1.45;;;1.30;;
46090;SDS011;31826;53.572;10.170;2023-04-24T05:02:09;2.00;;;1.45;;
46090;SDS011;31826;53.572;10.170;2023-04-24T05:04:35;2.67;;;1.60;;
46090;SDS011;31826;53.572;10.170;2023-04-24T05:07:01;1.87;;;1.23;;
46090;SDS011;31826;53.572;10.170;2023-04-24T05:09:27;2.28;;;1.30;;
46090;SDS011;31826;53.572;10.170;2023-04-24T05:11:54;2.25;;;1.50;;
46090;SDS011;31826;53.572;10.170;2023-04-24T05:14:21;2.45;;;1.33;;
46090;SDS011;31826;53.572;10.170;2023-04-24T05:16:47;3.00;;;1.40;;
46090;SDS011;31826;53.572;10.170;2023-04-24T05:19:12;1.85;;;1.30;;
46090;SDS011;31826;53.572;10.170;2023-04-24T05:21:39;1.67;;;1.48;;
46090;SDS011;31826;53.572;10.170;2023-04-24T05:24:05;2.70;;;1.38;;
46090;SDS011;31826;53.572;10.170;2023-04-24T05:26:31;1.50;;;1.20;;
46090;SDS011;31826;53.572;10.170;2023-04-24T05:28:57;3.20;;;1.23;;
46090;SDS011;31826;53.572;10.170;2023-04-24T05:31:23;2.20;;;1.40;;
46090;SDS011;31826;53.572;10.170;2023-04-24T05:33:49;1.40;;;1.20;;
46090;SDS011;31826;53.572;10.170;2023-04-24T05:36:14;3.10;;;1.27;;
46090;SDS011;31826;53.572;10.170;2023-04-24T05:38:40;1.58;;;1.30;;
46090;SDS011;31826;53.572;10.170;2023-04-24T05:41:06;2.03;;;1.20;;
46090;SDS011;31826;53.572;10.170;2023-04-24T05:43:31;1.30;;;0.93;;
46090;SDS011;31826;53.572;10.170;2023-04-24T05:45:57;3.35;;;1.30;;
46090;SDS011;31826;53.572;10.170;2023-04-24T05:48:23;1.20;;;1.10;;
46090;SDS011;31826;53.572;10.170;2023-04-24T05:50:49;1.35;;;1.10;;
46090;SDS011;31826;53.572;10.170;2023-04-24T05:53:15;1.40;;;1.10;;
46090;SDS011;31826;53.572;10.170;2023-04-24T05:55:40;1.23;;;1.13;;
46090;SDS011;31826;53.572;10.170;2023-04-24T05:58:06;1.48;;;1.10;;
46090;SDS011;31826;53.572;10.170;2023-04-24T06:00:32;1.50;;;1.00;;
46090;SDS011;31826;53.572;10.170;2023-04-24T06:02:59;1.38;;;1.00;;
46090;SDS011;31826;53.572;10.170;2023-04-24T06:05:25;1.30;;;1.10;;
46090;SDS011;31826;53.572;10.170;2023-04-24T06:07:51;3.40;;;1.20;;
46090;SDS011;31826;53.572;10.170;2023-04-24T06:10:17;1.67;;;1.10;;
46090;SDS011;31826;53.572;10.170;2023-04-24T06:12:43;1.65;;;1.17;;
46090;SDS011;31826;53.572;10.170;2023-04-24T06:15:08;2.90;;;1.45;;
46090;SDS011;31826;53.572;10.170;2023-04-24T06:17:35;1.17;;;1.05;;
46090;SDS011;31826;53.572;10.170;2023-04-24T06:20:00;1.95;;;1.20;;
46090;SDS011;31826;53.572;10.170;2023-04-24T06:22:28;2.35;;;1.20;;
46090;SDS011;31826;53.572;10.170;2023-04-24T06:24:54;1.50;;;1.10;;
46090;SDS011;31826;53.572;10.170;2023-04-24T06:27:20;1.60;;;1.13;;
46090;SDS011;31826;53.572;10.170;2023-04-24T06:29:46;1.42;;;1.20;;
46090;SDS011;31826;53.572;10.170;2023-04-24T06:32:17;1.90;;;1.20;;
46090;SDS011;31826;53.572;10.170;2023-04-24T06:34:43;2.40;;;1.13;;
46090;SDS011;31826;53.572;10.170;2023-04-24T06:37:09;2.92;;;1.38;;
46090;SDS011;31826;53.572;10.170;2023-04-24T06:39:34;1.40;;;1.10;;
46090;SDS011;31826;53.572;10.170;2023-04-24T06:42:00;2.10;;;1.30;;
46090;SDS011;31826;53.572;10.170;2023-04-24T06:44:26;2.47;;;1.10;;
46090;SDS011;31826;53.572;10.170;2023-04-24T06:46:51;1.73;;;1.40;;
46090;SDS011;31826;53.572;10.170;2023-04-24T06:49:17;2.38;;;1.40;;
46090;SDS011;31826;53.572;10.170;2023-04-24T06:51:43;2.25;;;1.50;;
46090;SDS011;31826;53.572;10.170;2023-04-24T06:54:08;2.92;;;1.52;;
46090;SDS011;31826;53.572;10.170;2023-04-24T06:56:34;2.33;;;1.40;;
46090;SDS011;31826;53.572;10.170;2023-04-24T06:59:00;2.33;;;1.37;;
46090;SDS011;31826;53.572;10.170;2023-04-24T07:01:26;2.27;;;1.50;;
46090;SDS011;31826;53.572;10.170;2023-04-24T07:03:52;2.38;;;1.50;;
46090;SDS011;31826;53.572;10.170;2023-04-24T07:06:17;2.63;;;1.50;;
46090;SDS011;31826;53.572;10.170;2023-04-24T07:08:46;2.67;;;1.65;;
46090;SDS011;31826;53.572;10.170;2023-04-24T07:11:12;3.60;;;1.73;;
46090;SDS011;31826;53.572;10.170;2023-04-24T07:13:38;1.95;;;1.50;;
46090;SDS011;31826;53.572;10.170;2023-04-24T07:16:06;2.22;;;1.60;;
46090;SDS011;31826;53.572;10.170;2023-04-24T07:18:33;2.70;;;1.57;;
46090;SDS011;31826;53.572;10.170;2023-04-24T07:20:59;2.20;;;1.70;;
46090;SDS011;31826;53.572;10.170;2023-04-24T07:23:24;2.40;;;1.60;;
46090;SDS011;31826;53.572;10.170;2023-04-24T07:25:50;3.80;;;1.80;;
46090;SDS011;31826;53.572;10.170;2023-04-24T07:28:16;4.28;;;1.83;;
46090;SDS011;31826;53.572;10.170;2023-04-24T07:30:43;4.15;;;1.88;;
46090;SDS011;31826;53.572;10.170;2023-04-24T07:33:08;2.22;;;1.70;;
46090;SDS011;31826;53.572;10.170;2023-04-24T07:35:36;2.80;;;1.73;;
46090;SDS011;31826;53.572;10.170;2023-04-24T07:38:02;4.63;;;1.60;;
46090;SDS011;31826;53.572;10.170;2023-04-24T07:40:27;3.80;;;1.90;;
46090;SDS011;31826;53.572;10.170;2023-04-24T07:42:53;3.23;;;1.83;;
46090;SDS011;31826;53.572;10.170;2023-04-24T07:45:19;3.90;;;2.00;;
46090;SDS011;31826;53.572;10.170;2023-04-24T07:47:45;2.92;;;1.90;;
46090;SDS011;31826;53.572;10.170;2023-04-24T07:50:11;2.80;;;2.03;;
46090;SDS011;31826;53.572;10.170;2023-04-24T07:52:38;4.47;;;2.30;;
46090;SDS011;31826;53.572;10.170;2023-04-24T07:55:04;4.10;;;1.80;;
46090;SDS011;31826;53.572;10.170;2023-04-24T07:57:30;3.63;;;2.00;;
46090;SDS011;31826;53.572;10.170;2023-04-24T07:59:56;3.30;;;1.90;;
46090;SDS011;31826;53.572;10.170;2023-04-24T08:02:21;3.37;;;1.90;;
46090;SDS011;31826;53.572;10.170;2023-04-24T08:04:51;4.15;;;2.33;;
46090;SDS011;31826;53.572;10.170;2023-04-24T08:07:19;4.97;;;2.15;;
46090;SDS011;31826;53.572;10.170;2023-04-24T08:09:44;3.45;;;2.03;;
46090;SDS011;31826;53.572;10.170;2023-04-24T08:12:10;3.58;;;2.17;;
46090;SDS011;31826;53.572;10.170;2023-04-24T08:14:36;4.47;;;2.30;;
46090;SDS011;31826;53.572;10.170;2023-04-24T08:17:01;3.50;;;2.00;;
46090;SDS011;31826;53.572;10.170;2023-04-24T08:19:28;3.13;;;2.15;;
46090;SDS011;31826;53.572;10.170;2023-04-24T08:21:54;3.65;;;2.30;;
46090;SDS011;31826;53.572;10.170;2023-04-24T08:24:20;5.65;;;2.67;;
46090;SDS011;31826;53.572;10.170;2023-04-24T08:26:45;3.80;;;2.35;;
46090;SDS011;31826;53.572;10.170;2023-04-24T08:29:11;4.03;;;2.47;;
46090;SDS011;31826;53.572;10.170;2023-04-24T08:31:37;4.13;;;2.38;;
46090;SDS011;31826;53.572;10.170;2023-04-24T08:34:02;5.03;;;2.33;;
46090;SDS011;31826;53.572;10.170;2023-04-24T08:36:28;5.38;;;2.42;;
46090;SDS011;31826;53.572;10.170;2023-04-24T08:38:55;6.25;;;2.70;;
46090;SDS011;31826;53.572;10.170;2023-04-24T08:41:21;5.50;;;2.80;;
46090;SDS011;31826;53.572;10.170;2023-04-24T08:43:49;5.85;;;2.95;;
46090;SDS011;31826;53.572;10.170;2023-04-24T08:46:16;5.53;;;3.10;;
46090;SDS011;31826;53.572;10.170;2023-04-24T08:48:43;5.45;;;3.08;;
46090;SDS011;31826;53.572;10.170;2023-04-24T08:51:09;6.93;;;3.15;;
46090;SDS011;31826;53.572;10.170;2023-04-24T08:53:35;5.85;;;3.30;;
46090;SDS011;31826;53.572;10.170;2023-04-24T08:56:02;6.35;;;3.42;;
46090;SDS011;31826;53.572;10.170;2023-04-24T08:58:28;6.60;;;3.30;;
46090;SDS011;31826;53.572;10.170;2023-04-24T09:00:55;8.05;;;3.78;;
46090;SDS011;31826;53.572;10.170;2023-04-24T09:03:23;7.43;;;3.95;;
46090;SDS011;31826;53.572;10.170;2023-04-24T09:05:49;6.47;;;3.73;;
46090;SDS011;31826;53.572;10.170;2023-04-24T09:08:18;4.97;;;3.05;;
46090;SDS011;31826;53.572;10.170;2023-04-24T09:10:47;7.28;;;3.25;;
46090;SDS011;31826;53.572;10.170;2023-04-24T09:13:13;6.72;;;2.95;;
46090;SDS011;31826;53.572;10.170;2023-04-24T09:15:39;5.47;;;2.60;;
46090;SDS011;31826;53.572;10.170;2023-04-24T09:18:06;4.38;;;2.33;;
46090;SDS011;31826;53.572;10.170;2023-04-24T09:20:32;4.67;;;2.33;;
46090;SDS011;31826;53.572;10.170;2023-04-24T09:22:57;4.45;;;2.63;;
46090;SDS011;31826;53.572;10.170;2023-04-24T09:25:32;6.30;;;2.72;;
46090;SDS011;31826;53.572;10.170;2023-04-24T09:28:01;4.50;;;2.63;;
46090;SDS011;31826;53.572;10.170;2023-04-24T09:30:28;3.97;;;2.45;;
46090;SDS011;31826;53.572;10.170;2023-04-24T09:35:40;4.90;;;2.97;;
46090;SDS011;31826;53.572;10.170;2023-04-24T09:38:07;5.25;;;2.70;;
46090;SDS011;31826;53.572;10.170;2023-04-24T09:40:34;4.90;;;2.90;;
46090;SDS011;31826;53.572;10.170;2023-04-24T09:43:00;6.07;;;3.30;;
46090;SDS011;31826;53.572;10.170;2023-04-24T09:45:37;5.27;;;2.97;;
46090;SDS011;31826;53.572;10.170;2023-04-24T09:48:04;5.45;;;3.15;;
46090;SDS011;31826;53.572;10.170;2023-04-24T09:50:31;5.47;;;3.10;;
46090;SDS011;31826;53.572;10.170;2023-04-24T09:53:06;7.57;;;3.30;;
46090;SDS011;31826;53.572;10.170;2023-04-24T09:55:39;6.00;;;3.07;;
46090;SDS011;31826;53.572;10.170;2023-04-24T09:58:09;6.57;;;3.20;;
46090;SDS011;31826;53.572;10.170;2023-04-24T10:00:35;6.18;;;3.28;;
46090;SDS011;31826;53.572;10.170;2023-04-24T10:03:02;6.03;;;3.47;;
46090;SDS011;31826;53.572;10.170;2023-04-24T10:05:30;6.35;;;3.30;;
46090;SDS011;31826;53.572;10.170;2023-04-24T10:08:07;5.95;;;3.13;;
46090;SDS011;31826;53.572;10.170;2023-04-24T10:10:44;6.80;;;3.40;;
46090;SDS011;31826;53.572;10.170;2023-04-24T10:13:11;7.03;;;3.30;;
46090;SDS011;31826;53.572;10.170;2023-04-24T10:15:38;7.93;;;3.78;;
46090;SDS011;31826;53.572;10.170;2023-04-24T10:18:05;5.88;;;3.40;;
46090;SDS011;31826;53.572;10.170;2023-04-24T10:20:33;6.40;;;3.28;;
46090;SDS011;31826;53.572;10.170;2023-04-24T10:23:00;7.70;;;3.78;;
46090;SDS011;31826;53.572;10.170;2023-04-24T10:25:26;6.88;;;3.88;;
46090;SDS011;31826;53.572;10.170;2023-04-24T10:27:54;9.73;;;4.15;;
46090;SDS011;31826;53.572;10.170;2023-04-24T10:30:25;8.27;;;3.80;;
46090;SDS011;31826;53.572;10.170;2023-04-24T10:32:55;8.30;;;3.92;;
46090;SDS011;31826;53.572;10.170;2023-04-24T10:35:21;9.37;;;4.27;;
46090;SDS011;31826;53.572;10.170;2023-04-24T10:37:52;8.88;;;4.25;;
46090;SDS011;31826;53.572;10.170;2023-04-24T10:40:39;10.15;;;4.65;;
46090;SDS011;31826;53.572;10.170;2023-04-24T10:43:06;9.07;;;4.40;;
46090;SDS011;31826;53.572;10.170;2023-04-24T10:45:36;9.55;;;4.80;;
46090;SDS011;31826;53.572;10.170;2023-04-24T10:48:03;10.27;;;5.10;;
46090;SDS011;31826;53.572;10.170;2023-04-24T10:50:44;10.13;;;4.90;;
46090;SDS011;31826;53.572;10.170;2023-04-24T10:53:27;10.45;;;5.20;;
46090;SDS011;31826;53.572;10.170;2023-04-24T10:56:03;9.23;;;4.50;;
46090;SDS011;31826;53.572;10.170;2023-04-24T10:58:41;10.75;;;4.80;;
46090;SDS011;31826;53.572;10.170;2023-04-24T11:03:54;10.55;;;5.00;;
46090;SDS011;31826;53.572;10.170;2023-04-24T11:06:28;11.05;;;5.55;;
46090;SDS011;31826;53.572;10.170;2023-04-24T11:08:59;12.02;;;5.10;;
46090;SDS011;31826;53.572;10.170;2023-04-24T11:11:30;12.48;;;5.65;;
46090;SDS011;31826;53.572;10.170;2023-04-24T11:19:06;10.70;;;5.30;;
46090;SDS011;31826;53.572;10.170;2023-04-24T11:26:51;10.00;;;4.95;;
46090;SDS011;31826;53.572;10.170;2023-04-24T11:29:22;9.45;;;5.18;;
46090;SDS011;31826;53.572;10.170;2023-04-24T11:31:48;11.27;;;5.20;;
46090;SDS011;31826;53.572;10.170;2023-04-24T11:34:16;9.63;;;5.18;;
46090;SDS011;31826;53.572;10.170;2023-04-24T11:36:43;9.35;;;4.53;;
46090;SDS011;31826;53.572;10.170;2023-04-24T11:39:13;10.60;;;4.50;;
46090;SDS011;31826;53.572;10.170;2023-04-24T11:41:39;9.93;;;4.65;;
46090;SDS011;31826;53.572;10.170;2023-04-24T11:44:06;10.02;;;4.90;;
46090;SDS011;31826;53.572;10.170;2023-04-24T11:46:33;9.63;;;4.70;;
46090;SDS011;31826;53.572;10.170;2023-04-24T11:48:59;10.10;;;4.93;;
46090;SDS011;31826;53.572;10.170;2023-04-24T11:51:25;10.90;;;4.78;;
46090;SDS011;31826;53.572;10.170;2023-04-24T11:53:54;9.90;;;5.07;;
46090;SDS011;31826;53.572;10.170;2023-04-24T11:56:24;10.15;;;4.90;;
46090;SDS011;31826;53.572;10.170;2023-04-24T11:58:53;10.15;;;4.70;;
46090;SDS011;31826;53.572;10.170;2023-04-24T12:01:19;10.32;;;4.63;;
46090;SDS011;31826;53.572;10.170;2023-04-24T12:03:49;12.50;;;4.50;;
46090;SDS011;31826;53.572;10.170;2023-04-24T12:06:16;8.73;;;4.28;;
46090;SDS011;31826;53.572;10.170;2023-04-24T12:08:42;8.88;;;3.63;;
46090;SDS011;31826;53.572;10.170;2023-04-24T12:11:14;8.57;;;3.55;;
46090;SDS011;31826;53.572;10.170;2023-04-24T12:13:40;7.00;;;3.50;;
46090;SDS011;31826;53.572;10.170;2023-04-24T12:16:06;8.27;;;3.73;;
46090;SDS011;31826;53.572;10.170;2023-04-24T12:18:32;7.77;;;3.73;;
46090;SDS011;31826;53.572;10.170;2023-04-24T12:21:17;6.60;;;3.43;;
46090;SDS011;31826;53.572;10.170;2023-04-24T12:23:44;7.25;;;3.47;;
46090;SDS011;31826;53.572;10.170;2023-04-24T12:26:19;8.47;;;3.83;;
46090;SDS011;31826;53.572;10.170;2023-04-24T12:28:47;6.90;;;3.40;;
46090;SDS011;31826;53.572;10.170;2023-04-24T12:31:16;6.63;;;3.35;;
46090;SDS011;31826;53.572;10.170;2023-04-24T12:33:42;8.52;;;3.17;;
46090;SDS011;31826;53.572;10.170;2023-04-24T12:36:12;5.35;;;2.78;;
46090;SDS011;31826;53.572;10.170;2023-04-24T12:38:38;6.65;;;2.90;;
46090;SDS011;31826;53.572;10.170;2023-04-24T12:41:10;6.10;;;3.30;;
46090;SDS011;31826;53.572;10.170;2023-04-24T12:43:37;6.18;;;3.33;;
46090;SDS011;31826;53.572;10.170;2023-04-24T12:46:03;5.85;;;3.13;;
46090;SDS011;31826;53.572;10.170;2023-04-24T12:48:30;7.05;;;3.38;;
46090;SDS011;31826;53.572;10.170;2023-04-24T12:50:59;8.37;;;3.83;;
46090;SDS011;31826;53.572;10.170;2023-04-24T12:53:27;6.82;;;3.65;;
46090;SDS011;31826;53.572;10.170;2023-04-24T12:55:56;6.47;;;2.95;;
46090;SDS011;31826;53.572;10.170;2023-04-24T12:58:22;8.63;;;3.47;;
46090;SDS011;31826;53.572;10.170;2023-04-24T13:00:48;7.40;;;3.20;;
46090;SDS011;31826;53.572;10.170;2023-04-24T13:03:14;6.03;;;3.30;;
46090;SDS011;31826;53.572;10.170;2023-04-24T13:05:40;6.28;;;3.03;;
46090;SDS011;31826;53.572;10.170;2023-04-24T13:08:06;6.13;;;2.80;;
46090;SDS011;31826;53.572;10.170;2023-04-24T13:10:32;5.18;;;2.80;;
46090;SDS011;31826;53.572;10.170;2023-04-24T13:12:57;7.18;;;3.10;;
46090;SDS011;31826;53.572;10.170;2023-04-24T13:15:23;6.22;;;3.05;;
46090;SDS011;31826;53.572;10.170;2023-04-24T13:17:50;5.88;;;3.03;;
46090;SDS011;31826;53.572;10.170;2023-04-24T13:20:15;4.88;;;2.75;;
46090;SDS011;31826;53.572;10.170;2023-04-24T13:22:42;5.38;;;2.38;;
46090;SDS011;31826;53.572;10.170;2023-04-24T13:25:08;5.15;;;2.72;;
46090;SDS011;31826;53.572;10.170;2023-04-24T13:27:34;4.78;;;2.58;;
46090;SDS011;31826;53.572;10.170;2023-04-24T13:29:59;5.53;;;2.77;;
46090;SDS011;31826;53.572;10.170;2023-04-24T13:32:25;5.93;;;3.15;;
46090;SDS011;31826;53.572;10.170;2023-04-24T13:34:52;6.25;;;3.15;;
46090;SDS011;31826;53.572;10.170;2023-04-24T13:37:18;5.97;;;3.15;;
46090;SDS011;31826;53.572;10.170;2023-04-24T13:39:44;7.18;;;3.13;;
46090;SDS011;31826;53.572;10.170;2023-04-24T13:42:09;5.53;;;2.65;;
46090;SDS011;31826;53.572;10.170;2023-04-24T13:44:35;4.95;;;3.10;;
46090;SDS011;31826;53.572;10.170;2023-04-24T13:47:01;4.43;;;2.60;;
46090;SDS011;31826;53.572;10.170;2023-04-24T13:49:27;4.53;;;2.67;;
46090;SDS011;31826;53.572;10.170;2023-04-24T13:51:53;4.90;;;2.67;;
46090;SDS011;31826;53.572;10.170;2023-04-24T13:54:20;5.03;;;2.60;;
46090;SDS011;31826;53.572;10.170;2023-04-24T13:56:47;4.72;;;2.80;;
46090;SDS011;31826;53.572;10.170;2023-04-24T13:59:12;5.47;;;2.60;;
46090;SDS011;31826;53.572;10.170;2023-04-24T14:01:38;5.78;;;2.58;;
46090;SDS011;31826;53.572;10.170;2023-04-24T14:04:04;6.63;;;3.00;;
46090;SDS011;31826;53.572;10.170;2023-04-24T14:06:30;4.97;;;2.88;;
46090;SDS011;31826;53.572;10.170;2023-04-24T14:08:56;4.43;;;2.67;;
46090;SDS011;31826;53.572;10.170;2023-04-24T14:11:22;5.03;;;2.70;;
46090;SDS011;31826;53.572;10.170;2023-04-24T14:13:48;5.50;;;3.00;;
46090;SDS011;31826;53.572;10.170;2023-04-24T14:16:14;3.92;;;2.53;;
46090;SDS011;31826;53.572;10.170;2023-04-24T14:18:39;4.32;;;2.70;;
46090;SDS011;31826;53.572;10.170;2023-04-24T14:21:05;6.20;;;3.20;;
46090;SDS011;31826;53.572;10.170;2023-04-24T14:23:31;4.65;;;2.80;;
46090;SDS011;31826;53.572;10.170;2023-04-24T14:25:57;5.97;;;3.10;;
46090;SDS011;31826;53.572;10.170;2023-04-24T14:28:24;5.13;;;2.93;;
46090;SDS011;31826;53.572;10.170;2023-04-24T14:30:51;5.07;;;2.90;;
46090;SDS011;31826;53.572;10.170;2023-04-24T14:33:17;5.95;;;2.88;;
46090;SDS011;31826;53.572;10.170;2023-04-24T14:35:43;6.50;;;2.80;;
46090;SDS011;31826;53.572;10.170;2023-04-24T14:38:09;6.33;;;2.93;;
46090;SDS011;31826;53.572;10.170;2023-04-24T14:40:35;8.05;;;3.55;;
46090;SDS011;31826;53.572;10.170;2023-04-24T14:43:01;6.25;;;3.03;;
46090;SDS011;31826;53.572;10.170;2023-04-24T14:45:27;4.53;;;2.45;;
46090;SDS011;31826;53.572;10.170;2023-04-24T14:47:52;4.55;;;2.53;;